Time;durP1;ratioP1;P1;durP2;ratioP2;P2;SDS_P1;SDS_P2;PMS_P1;PMS_P2;Temp;Humidity;BMP_temperature;BMP_pressure;BME280_temperature;BME280_humidity;BME280_pressure;Samples;Min_cycle;Max_cycle;Signal;HPM_P1;HPM_P2
2023/10/29 04:31:18;;;;;;;1.48;1.17;;;9.50;99.90;;;;;;5675987;23;20255;-88
2023/10/29 04:33:48;;;;;;;1.65;1.30;;;9.50;99.90;;;;;;4972927;28;20211;-90
2023/10/29 04:36:19;;;;;;;1.17;1.08;;;9.50;99.90;;;;;;4976650;28;20267;-90
2023/10/29 04:38:46;;;;;;;1.38;1.10;;;9.50;99.90;;;;;;4976727;28;20204;-90
2023/10/29 04:41:14;;;;;;;1.70;1.15;;;9.50;99.90;;;;;;4970626;28;20232;-89
2023/10/29 04:43:42;;;;;;;1.30;1.17;;;9.50;99.90;;;;;;4955293;29;20207;-90
2023/10/29 04:46:10;;;;;;;0.90;0.80;;;9.50;99.90;;;;;;4958301;28;20208;-91
2023/10/29 04:48:38;;;;;;;2.13;1.20;;;9.40;99.90;;;;;;4961065;28;20345;-91
2023/10/29 04:51:07;;;;;;;1.13;1.02;;;9.40;99.90;;;;;;4961220;28;20236;-89
2023/10/29 04:53:39;;;;;;;1.65;1.55;;;9.30;99.90;;;;;;4972909;28;20212;-90
2023/10/29 04:56:06;;;;;;;1.45;1.25;;;9.30;99.90;;;;;;4958556;29;20200;-90
2023/10/29 04:58:33;;;;;;;1.10;0.93;;;9.20;99.90;;;;;;4957997;28;20658;-90
2023/10/29 05:01:00;;;;;;;3.45;1.60;;;9.10;99.90;;;;;;4958612;28;20224;-90
2023/10/29 05:03:28;;;;;;;1.30;1.20;;;9.10;99.90;;;;;;4959322;28;20193;-90
2023/10/29 05:05:57;;;;;;;6.22;1.77;;;9.10;99.90;;;;;;4958146;28;20244;-90
2023/10/29 05:08:24;;;;;;;4.00;1.25;;;9.10;99.90;;;;;;4958550;28;20209;-90
2023/10/29 05:10:53;;;;;;;1.20;1.10;;;9.10;99.90;;;;;;4958172;28;20228;-90
2023/10/29 05:13:20;;;;;;;1.65;1.10;;;9.00;99.90;;;;;;4955709;29;20211;-90
2023/10/29 05:15:50;;;;;;;1.48;1.23;;;9.00;99.90;;;;;;4960290;28;20740;-89
2023/10/29 05:18:17;;;;;;;1.17;1.05;;;9.00;99.90;;;;;;4958927;28;20232;-90
2023/10/29 05:20:44;;;;;;;2.45;1.00;;;8.90;99.90;;;;;;4958337;28;20280;-91
2023/10/29 05:23:13;;;;;;;4.40;1.33;;;8.80;99.90;;;;;;4958801;28;20201;-89
2023/10/29 05:25:41;;;;;;;1.75;1.20;;;8.80;99.90;;;;;;4958553;28;20203;-91
2023/10/29 05:28:08;;;;;;;1.70;1.27;;;8.80;99.90;;;;;;4958400;28;20209;-91
2023/10/29 05:30:35;;;;;;;2.55;1.17;;;8.80;99.90;;;;;;4957359;28;20504;-91
2023/10/29 05:33:02;;;;;;;1.50;1.40;;;8.80;99.90;;;;;;4956175;28;20311;-90
2023/10/29 05:35:28;;;;;;;1.52;1.15;;;8.90;99.90;;;;;;4957503;28;20549;-90
2023/10/29 05:37:55;;;;;;;1.20;1.05;;;9.00;99.90;;;;;;4957836;28;20205;-91
2023/10/29 05:40:28;;;;;;;1.13;1.00;;;9.10;99.90;;;;;;4962798;28;20205;-93
2023/10/29 05:42:57;;;;;;;2.65;1.27;;;9.10;99.90;;;;;;4976341;28;20257;-93
2023/10/29 05:45:37;;;;;;;1.35;1.25;;;9.10;99.90;;;;;;4977705;28;20205;-94
2023/10/29 05:48:04;;;;;;;3.55;1.33;;;9.00;99.90;;;;;;4978147;28;20200;-94
2023/10/29 05:50:31;;;;;;;1.80;1.30;;;9.00;99.90;;;;;;4978942;28;20211;-93
2023/10/29 05:52:58;;;;;;;2.17;1.55;;;9.00;99.90;;;;;;4974137;28;20221;-92
2023/10/29 05:55:26;;;;;;;1.50;1.08;;;9.00;99.90;;;;;;4973846;28;20223;-93
2023/10/29 05:57:53;;;;;;;1.10;1.00;;;9.00;99.90;;;;;;4976923;28;20287;-92
2023/10/29 06:00:20;;;;;;;2.10;1.30;;;9.00;99.90;;;;;;4977475;28;20205;-92
2023/10/29 06:03:27;;;;;;;1.50;1.40;;;9.00;99.90;;;;;;4973033;28;20293;-93
2023/10/29 06:06:08;;;;;;;5.15;1.48;;;9.00;99.90;;;;;;4975745;28;20256;-93
2023/10/29 06:08:36;;;;;;;1.40;1.10;;;9.00;99.90;;;;;;4974534;28;20272;-94
2023/10/29 06:11:29;;;;;;;1.50;1.23;;;9.00;99.90;;;;;;4966159;28;20493;-94
2023/10/29 06:13:57;;;;;;;1.80;1.13;;;9.00;99.90;;;;;;4978211;28;20205;-93
2023/10/29 06:16:24;;;;;;;1.50;1.40;;;9.00;99.90;;;;;;4976693;28;20242;-93
2023/10/29 06:18:51;;;;;;;1.48;1.20;;;9.10;99.90;;;;;;4975356;28;20208;-94
2023/10/29 06:25:23;;;;;;;1.30;1.20;;;9.10;99.90;;;;;;4901302;29;20215;-95
2023/10/29 06:28:03;;;;;;;1.45;1.15;;;9.20;99.90;;;;;;4929652;28;20337;-95
2023/10/29 06:31:33;;;;;;;;;;;;;;;;;;;;;
2023/10/29 06:34:00;;;;;;;1.33;1.20;;;9.30;99.90;;;;;;4965672;23;20565;-71
2023/10/29 06:36:26;;;;;;;2.65;1.17;;;9.40;99.90;;;;;;4993126;28;20222;-71
2023/10/29 06:38:53;;;;;;;0.80;0.80;;;9.40;99.90;;;;;;4993062;28;20676;-72
2023/10/29 06:41:20;;;;;;;1.10;1.00;;;9.50;99.90;;;;;;4993486;28;20219;-72
2023/10/29 06:43:48;;;;;;;2.38;1.50;;;9.50;99.90;;;;;;4993167;28;20210;-72
2023/10/29 06:46:16;;;;;;;1.30;1.10;;;9.50;99.90;;;;;;4986630;28;20211;-72
2023/10/29 06:48:42;;;;;;;1.80;1.45;;;9.60;99.90;;;;;;4993268;28;20211;-71
2023/10/29 06:51:10;;;;;;;1.35;1.15;;;9.60;99.90;;;;;;4992368;28;20234;-71
2023/10/29 06:53:37;;;;;;;1.73;1.50;;;9.70;99.90;;;;;;4992980;28;20617;-71
2023/10/29 06:56:04;;;;;;;1.23;1.10;;;9.70;99.90;;;;;;4989614;28;20212;-71
2023/10/29 06:58:31;;;;;;;1.10;1.00;;;9.80;99.90;;;;;;4991901;28;20579;-71
2023/10/29 07:01:04;;;;;;;1.80;1.08;;;9.90;99.90;;;;;;4992013;28;20239;-71
2023/10/29 07:03:32;;;;;;;1.58;0.90;;;10.00;99.90;;;;;;4992651;28;20211;-72
2023/10/29 07:06:06;;;;;;;2.10;1.20;;;10.10;99.90;;;;;;4991993;28;20212;-72
2023/10/29 07:08:33;;;;;;;1.85;1.27;;;10.20;99.90;;;;;;4989430;28;20251;-72
2023/10/29 07:11:01;;;;;;;1.20;0.90;;;10.30;99.90;;;;;;4987942;28;20608;-71
2023/10/29 07:13:28;;;;;;;1.20;1.10;;;10.40;99.90;;;;;;4991435;28;20229;-71
2023/10/29 07:15:55;;;;;;;2.80;1.40;;;10.50;99.90;;;;;;4990805;28;20245;-71
2023/10/29 07:18:24;;;;;;;1.35;1.10;;;10.60;99.90;;;;;;4991725;28;20365;-71
2023/10/29 07:20:52;;;;;;;1.20;0.80;;;10.70;99.90;;;;;;4990490;28;20576;-72
2023/10/29 07:23:20;;;;;;;2.13;1.08;;;10.80;99.90;;;;;;4988389;28;20258;-72
2023/10/29 07:25:47;;;;;;;1.65;1.00;;;10.90;99.90;;;;;;4990825;28;20739;-72
2023/10/29 07:28:14;;;;;;;1.20;1.10;;;11.00;99.90;;;;;;4988646;28;20213;-72
2023/10/29 07:30:41;;;;;;;1.50;0.93;;;11.00;99.90;;;;;;4991420;28;20318;-71
2023/10/29 07:33:09;;;;;;;1.00;0.90;;;11.00;99.90;;;;;;4991524;28;20582;-71
2023/10/29 07:35:37;;;;;;;1.00;0.90;;;11.10;99.90;;;;;;4985036;28;20312;-71
2023/10/29 07:38:04;;;;;;;1.00;0.90;;;11.10;99.90;;;;;;4977634;28;20216;-71
2023/10/29 07:40:33;;;;;;;2.25;1.10;;;11.10;99.90;;;;;;4991364;28;20779;-72
2023/10/29 07:43:00;;;;;;;2.10;1.30;;;11.20;99.90;;;;;;4987429;28;20259;-72
2023/10/29 07:45:26;;;;;;;1.30;1.00;;;11.30;99.90;;;;;;4987692;28;20216;-72
2023/10/29 07:47:54;;;;;;;2.05;1.30;;;11.30;99.90;;;;;;4984441;28;20261;-71
2023/10/29 07:50:21;;;;;;;1.25;1.00;;;11.40;99.90;;;;;;4985279;28;20217;-71
2023/10/29 07:52:49;;;;;;;1.95;1.10;;;11.40;99.90;;;;;;4991099;28;20600;-71
2023/10/29 07:55:16;;;;;;;2.15;1.20;;;11.40;99.90;;;;;;4986347;28;20221;-72
2023/10/29 07:57:42;;;;;;;1.42;1.05;;;11.50;99.90;;;;;;4985453;28;20224;-71
2023/10/29 08:00:10;;;;;;;1.10;1.00;;;11.50;99.90;;;;;;4985289;28;20219;-71
2023/10/29 08:02:37;;;;;;;1.10;0.88;;;11.60;99.90;;;;;;4986428;28;20229;-71
2023/10/29 08:05:04;;;;;;;1.48;1.08;;;11.60;99.90;;;;;;4984275;28;20226;-71
2023/10/29 08:07:31;;;;;;;1.50;1.00;;;11.60;99.90;;;;;;4986507;28;20213;-66
2023/10/29 08:10:02;;;;;;;1.85;1.17;;;11.70;99.90;;;;;;4984380;28;20222;-67
2023/10/29 08:12:30;;;;;;;2.15;1.20;;;11.70;99.90;;;;;;4986698;28;20229;-67
2023/10/29 08:14:56;;;;;;;2.70;1.27;;;11.80;99.90;;;;;;4983567;28;20210;-65
2023/10/29 08:17:23;;;;;;;1.20;1.00;;;11.90;99.90;;;;;;4986560;28;20697;-67
2023/10/29 08:19:50;;;;;;;1.27;1.17;;;12.00;99.90;;;;;;4984518;28;20249;-67
2023/10/29 08:22:17;;;;;;;1.88;1.40;;;12.00;99.90;;;;;;4985724;28;20234;-67
2023/10/29 08:24:44;;;;;;;1.35;1.00;;;12.10;99.90;;;;;;4984951;28;20212;-66
2023/10/29 08:27:12;;;;;;;1.00;0.90;;;12.20;99.90;;;;;;4983821;28;20306;-66
2023/10/29 08:29:40;;;;;;;1.63;1.20;;;12.20;99.90;;;;;;4985319;28;20210;-66
2023/10/29 08:32:07;;;;;;;1.75;1.23;;;12.30;99.90;;;;;;4983479;28;20230;-67
2023/10/29 08:34:33;;;;;;;1.50;1.40;;;12.30;99.90;;;;;;4985814;28;20225;-66
2023/10/29 08:37:00;;;;;;;2.00;1.80;;;12.30;99.90;;;;;;4982166;28;20995;-65
2023/10/29 08:39:27;;;;;;;1.20;1.10;;;12.30;99.90;;;;;;4991247;28;20465;-66
2023/10/29 08:41:54;;;;;;;1.80;1.33;;;12.40;99.90;;;;;;4991037;28;20496;-68
2023/10/29 08:44:22;;;;;;;1.77;1.30;;;12.40;99.90;;;;;;4991123;28;20465;-67
2023/10/29 08:46:49;;;;;;;1.70;1.30;;;12.50;99.90;;;;;;4990294;28;20476;-67
2023/10/29 08:49:15;;;;;;;1.83;1.40;;;12.60;99.90;;;;;;4991041;28;20473;-67
2023/10/29 08:51:42;;;;;;;2.70;1.50;;;12.60;99.90;;;;;;4991006;28;20481;-65
2023/10/29 08:54:09;;;;;;;2.90;1.20;;;12.60;99.90;;;;;;4990994;28;20222;-67
2023/10/29 08:56:36;;;;;;;1.67;1.57;;;12.60;99.90;;;;;;4990803;28;20469;-67
2023/10/29 08:59:04;;;;;;;1.20;1.10;;;12.70;99.90;;;;;;4988209;28;20458;-67
2023/10/29 09:01:32;;;;;;;1.83;1.10;;;12.70;99.90;;;;;;4991508;28;20544;-67
2023/10/29 09:03:59;;;;;;;1.60;1.20;;;12.70;99.90;;;;;;4990926;28;20462;-67
2023/10/29 09:06:26;;;;;;;7.43;1.87;;;12.80;99.90;;;;;;4990500;28;20467;-67
2023/10/29 09:08:53;;;;;;;1.98;1.10;;;12.80;99.90;;;;;;4990799;28;20461;-67
2023/10/29 09:11:19;;;;;;;1.77;1.10;;;12.80;99.90;;;;;;4991034;28;20608;-67
2023/10/29 09:13:46;;;;;;;1.30;1.00;;;12.80;99.90;;;;;;4990849;28;20884;-67
2023/10/29 09:16:13;;;;;;;1.77;1.27;;;12.90;99.90;;;;;;4990419;28;20467;-67
2023/10/29 09:18:41;;;;;;;1.37;1.00;;;12.90;99.90;;;;;;4990830;28;20528;-67
2023/10/29 09:21:08;;;;;;;1.30;1.00;;;13.00;99.90;;;;;;4994079;28;20495;-67
2023/10/29 09:23:35;;;;;;;1.48;1.25;;;13.10;99.90;;;;;;4994849;28;20471;-67
2023/10/29 09:26:01;;;;;;;1.63;1.30;;;13.20;99.90;;;;;;4994122;28;20691;-68
2023/10/29 09:28:28;;;;;;;2.85;1.55;;;13.20;99.90;;;;;;4994820;28;20510;-68
2023/10/29 09:30:55;;;;;;;1.77;1.42;;;13.30;99.90;;;;;;4994586;28;20711;-67
2023/10/29 09:33:22;;;;;;;1.47;1.10;;;13.30;99.90;;;;;;4994507;28;20230;-66
2023/10/29 09:35:50;;;;;;;1.77;1.47;;;13.40;99.90;;;;;;4993709;28;20475;-67
2023/10/29 09:38:20;;;;;;;1.20;1.10;;;13.40;99.90;;;;;;4994351;28;20849;-67
2023/10/29 09:40:48;;;;;;;1.00;0.90;;;13.40;99.90;;;;;;4994375;28;20540;-67
2023/10/29 09:43:16;;;;;;;1.87;1.33;;;13.40;99.90;;;;;;4994332;28;20472;-67
2023/10/29 09:45:45;;;;;;;1.80;1.10;;;13.50;99.90;;;;;;4993686;28;20476;-67
2023/10/29 09:48:13;;;;;;;1.07;0.97;;;13.50;99.90;;;;;;4993998;28;20462;-67
2023/10/29 09:50:41;;;;;;;1.90;1.42;;;13.50;99.90;;;;;;4994004;28;20485;-67
2023/10/29 09:53:11;;;;;;;1.00;0.87;;;13.60;99.90;;;;;;4993950;28;20223;-66
2023/10/29 09:55:39;;;;;;;1.30;1.20;;;13.60;99.90;;;;;;4993654;28;20476;-67
2023/10/29 09:58:06;;;;;;;1.50;1.10;;;13.70;99.90;;;;;;4993997;28;20469;-67
2023/10/29 10:00:33;;;;;;;1.20;1.00;;;13.70;99.90;;;;;;4994010;28;20462;-67
2023/10/29 10:02:59;;;;;;;1.70;1.37;;;13.80;99.90;;;;;;4993704;28;20465;-67
2023/10/29 10:05:28;;;;;;;1.80;1.40;;;13.80;99.90;;;;;;4990133;28;20678;-67
2023/10/29 10:07:55;;;;;;;2.03;1.20;;;13.80;99.90;;;;;;4993017;28;20477;-67
2023/10/29 10:10:37;;;;;;;2.00;1.30;;;13.90;99.90;;;;;;4993717;28;20473;-67
2023/10/29 10:13:04;;;;;;;1.80;1.50;;;14.00;99.90;;;;;;4989700;28;20493;-67
2023/10/29 10:15:31;;;;;;;1.67;1.00;;;14.00;99.90;;;;;;4993508;28;20466;-67
2023/10/29 10:18:00;;;;;;;1.70;1.50;;;14.00;99.90;;;;;;4993106;28;20473;-67
2023/10/29 10:20:28;;;;;;;1.57;1.40;;;14.00;99.90;;;;;;4993437;28;20839;-67
2023/10/29 10:22:59;;;;;;;3.57;1.20;;;14.10;99.90;;;;;;4993560;28;20470;-67
2023/10/29 10:25:27;;;;;;;1.63;1.13;;;14.00;99.90;;;;;;4993181;28;20469;-67
2023/10/29 10:27:55;;;;;;;2.10;1.33;;;14.10;99.90;;;;;;4993163;28;20856;-67
2023/10/29 10:30:26;;;;;;;1.80;1.30;;;14.10;99.90;;;;;;4993421;28;21045;-67
2023/10/29 10:32:53;;;;;;;1.50;1.23;;;14.10;99.90;;;;;;4993261;28;20522;-67
2023/10/29 10:35:20;;;;;;;1.87;1.77;;;14.10;99.90;;;;;;4992913;28;20463;-67
2023/10/29 10:37:54;;;;;;;1.70;1.60;;;14.10;99.90;;;;;;4992908;28;20553;-67
2023/10/29 10:40:26;;;;;;;2.57;1.57;;;14.20;99.90;;;;;;4993442;28;20524;-67
2023/10/29 10:42:57;;;;;;;1.70;1.60;;;14.20;99.90;;;;;;4993178;28;20981;-67
2023/10/29 10:45:27;;;;;;;1.47;1.33;;;14.20;99.90;;;;;;4992935;28;20458;-67
2023/10/29 10:47:57;;;;;;;1.50;1.10;;;14.20;99.90;;;;;;4992769;28;20497;-67
2023/10/29 10:50:25;;;;;;;2.50;1.20;;;14.20;99.90;;;;;;4992953;28;20513;-67
2023/10/29 10:52:52;;;;;;;4.63;1.97;;;14.30;99.90;;;;;;4992953;28;20466;-66
2023/10/29 10:55:19;;;;;;;1.87;1.50;;;14.30;99.90;;;;;;4992596;28;20951;-67
2023/10/29 10:57:49;;;;;;;2.03;1.83;;;14.30;99.90;;;;;;4992603;28;20470;-67
2023/10/29 11:00:19;;;;;;;1.87;1.40;;;14.30;99.90;;;;;;4992869;28;20470;-67
2023/10/29 11:02:46;;;;;;;2.03;1.70;;;14.30;99.90;;;;;;4992813;28;20466;-67
2023/10/29 11:05:15;;;;;;;2.80;1.63;;;14.40;99.90;;;;;;4992593;28;20473;-66
2023/10/29 11:07:43;;;;;;;1.57;1.37;;;14.40;99.90;;;;;;4992530;28;20857;-66
2023/10/29 11:10:13;;;;;;;1.63;1.37;;;14.40;99.90;;;;;;4993058;28;20469;-66
2023/10/29 11:12:40;;;;;;;1.30;1.20;;;14.40;99.90;;;;;;4992834;28;20489;-67
2023/10/29 11:15:19;;;;;;;2.20;1.50;;;14.40;99.90;;;;;;4992454;28;20497;-67
2023/10/29 11:17:57;;;;;;;1.53;1.43;;;14.40;99.90;;;;;;4992239;28;20466;-66
2023/10/29 11:20:55;;;;;;;1.73;1.53;;;14.40;99.90;;;;;;4992549;28;20516;-67
2023/10/29 11:23:27;;;;;;;2.23;1.33;;;14.50;99.90;;;;;;4990445;28;20458;-67
2023/10/29 11:26:22;;;;;;;1.40;1.30;;;14.50;99.90;;;;;;4991901;28;20830;-66
2023/10/29 11:28:49;;;;;;;1.43;1.23;;;14.60;99.90;;;;;;4992260;28;20474;-67
2023/10/29 11:31:19;;;;;;;1.73;1.33;;;14.80;99.90;;;;;;4992232;28;20482;-67
2023/10/29 11:33:47;;;;;;;1.23;1.13;;;14.90;99.90;;;;;;4991906;28;20538;-66
2023/10/29 11:36:34;;;;;;;1.53;1.20;;;15.00;99.90;;;;;;4992098;28;20493;-67
2023/10/29 11:39:31;;;;;;;1.43;1.10;;;15.20;99.90;;;;;;4992095;28;20473;-67
2023/10/29 11:41:57;;;;;;;1.57;1.10;;;15.50;99.90;;;;;;4991797;28;20553;-67
2023/10/29 11:44:24;;;;;;;1.53;0.93;;;15.70;99.90;;;;;;4991860;28;20467;-66
2023/10/29 11:47:06;;;;;;;1.37;1.13;;;16.00;99.90;;;;;;4991519;28;20464;-67
2023/10/29 11:50:06;;;;;;;1.50;1.20;;;16.30;99.90;;;;;;4992199;28;20466;-66
2023/10/29 11:52:42;;;;;;;1.40;0.97;;;16.50;99.90;;;;;;4990656;28;20474;-67
2023/10/29 11:55:11;;;;;;;4.13;1.20;;;16.70;99.90;;;;;;4987536;28;20488;-67
2023/10/29 11:57:41;;;;;;;1.73;1.40;;;16.80;99.90;;;;;;4991455;28;20461;-66
2023/10/29 12:00:09;;;;;;;0.93;0.70;;;16.80;99.90;;;;;;4992042;28;20472;-67
2023/10/29 12:02:37;;;;;;;2.10;1.07;;;16.80;99.90;;;;;;4991688;28;20482;-67
2023/10/29 12:05:09;;;;;;;1.13;1.03;;;16.80;99.90;;;;;;4986480;28;20464;-67
2023/10/29 12:07:36;;;;;;;1.10;1.00;;;16.80;99.90;;;;;;4991405;28;20459;-67
2023/10/29 12:10:04;;;;;;;1.60;1.30;;;17.20;99.90;;;;;;4991874;28;20836;-67
2023/10/29 12:12:31;;;;;;;1.30;1.00;;;17.60;99.90;;;;;;4991718;28;20538;-67
2023/10/29 12:14:58;;;;;;;1.47;0.90;;;18.00;99.90;;;;;;4991315;28;20517;-67
2023/10/29 12:17:27;;;;;;;1.00;0.83;;;18.40;99.90;;;;;;4991383;28;20834;-67
2023/10/29 12:19:55;;;;;;;1.17;1.00;;;18.60;99.90;;;;;;4991606;28;20500;-67
2023/10/29 12:22:24;;;;;;;0.90;0.70;;;18.80;99.90;;;;;;4991450;28;21024;-67
2023/10/29 12:24:53;;;;;;;1.80;1.10;;;19.10;99.90;;;;;;4991235;28;20970;-67
2023/10/29 12:27:21;;;;;;;2.40;0.80;;;19.30;99.90;;;;;;4991164;28;20471;-67
2023/10/29 12:29:48;;;;;;;2.13;0.90;;;19.40;99.90;;;;;;4991475;28;20465;-67
2023/10/29 12:32:19;;;;;;;1.57;1.00;;;19.30;99.90;;;;;;4991506;28;20488;-66
2023/10/29 12:34:50;;;;;;;0.93;0.83;;;19.20;99.90;;;;;;4988775;28;20486;-67
2023/10/29 12:37:25;;;;;;;1.40;0.93;;;19.10;99.90;;;;;;4991233;28;20477;-67
2023/10/29 12:39:55;;;;;;;1.00;0.80;;;18.80;99.90;;;;;;4991338;28;20476;-66
2023/10/29 12:42:23;;;;;;;1.00;0.90;;;18.70;99.90;;;;;;4991313;28;20998;-66
2023/10/29 12:44:54;;;;;;;1.10;1.00;;;18.70;99.90;;;;;;4991298;28;20469;-66
2023/10/29 12:47:21;;;;;;;1.40;0.97;;;18.80;99.90;;;;;;4991133;28;20488;-66
2023/10/29 12:49:59;;;;;;;1.27;0.97;;;18.80;99.90;;;;;;4991128;28;20459;-67
2023/10/29 12:52:27;;;;;;;0.97;0.87;;;18.70;99.90;;;;;;4991248;28;20481;-66
2023/10/29 12:54:54;;;;;;;1.20;1.10;;;18.50;99.90;;;;;;4992221;28;20854;-66
2023/10/29 12:57:22;;;;;;;1.33;1.00;;;18.40;99.90;;;;;;4995109;28;20969;-66
2023/10/29 12:59:48;;;;;;;2.30;1.30;;;18.20;99.90;;;;;;4993313;28;20469;-66
2023/10/29 13:02:22;;;;;;;1.00;0.87;;;18.10;99.90;;;;;;4995266;28;20493;-67
2023/10/29 13:04:49;;;;;;;1.50;1.10;;;18.10;99.90;;;;;;4994773;28;20465;-67
2023/10/29 13:07:17;;;;;;;1.00;0.87;;;18.40;99.90;;;;;;4995101;28;20462;-67
2023/10/29 13:09:48;;;;;;;1.70;0.97;;;18.60;99.90;;;;;;4994767;28;21041;-67
2023/10/29 13:12:16;;;;;;;1.10;1.00;;;18.70;99.90;;;;;;4995147;28;20949;-67
2023/10/29 13:14:43;;;;;;;1.73;1.00;;;18.60;99.90;;;;;;4994593;28;20497;-67
2023/10/29 13:17:10;;;;;;;1.03;0.87;;;18.70;99.90;;;;;;4994468;28;20469;-67
2023/10/29 13:19:37;;;;;;;1.30;1.10;;;18.90;99.90;;;;;;4994803;28;20462;-67
2023/10/29 13:22:05;;;;;;;1.00;0.90;;;19.20;99.90;;;;;;4988881;28;20482;-67
2023/10/29 13:24:32;;;;;;;1.90;1.00;;;19.50;99.90;;;;;;4994651;28;20461;-67
2023/10/29 13:27:01;;;;;;;1.37;1.00;;;19.60;99.90;;;;;;4994140;28;20462;-67
2023/10/29 13:29:28;;;;;;;1.63;1.13;;;19.50;99.90;;;;;;4994642;28;20902;-67
2023/10/29 13:31:55;;;;;;;1.27;0.90;;;19.20;99.90;;;;;;4994350;28;20486;-67
2023/10/29 13:34:23;;;;;;;1.00;0.90;;;18.90;99.90;;;;;;4994427;28;20490;-67
2023/10/29 13:36:50;;;;;;;0.93;0.83;;;18.70;99.90;;;;;;4993601;28;20473;-67
2023/10/29 13:39:16;;;;;;;1.03;0.80;;;18.60;99.90;;;;;;4994669;28;20466;-67
2023/10/29 13:41:44;;;;;;;1.23;0.83;;;18.50;99.90;;;;;;4994138;28;20482;-67
2023/10/29 13:44:15;;;;;;;1.47;1.00;;;18.30;99.90;;;;;;4994587;28;20465;-67
2023/10/29 13:46:43;;;;;;;1.07;0.97;;;18.30;99.90;;;;;;4993693;28;20891;-67
2023/10/29 13:49:10;;;;;;;1.10;0.90;;;18.10;99.90;;;;;;4994563;28;20465;-67
2023/10/29 13:51:37;;;;;;;1.40;0.90;;;18.00;99.90;;;;;;4994161;28;20482;-67
2023/10/29 13:54:05;;;;;;;1.00;0.80;;;18.00;99.90;;;;;;4987729;28;20490;-67
2023/10/29 13:56:32;;;;;;;1.20;1.10;;;18.00;99.90;;;;;;4993712;28;20464;-67
2023/10/29 13:58:58;;;;;;;1.03;0.90;;;17.90;99.90;;;;;;4993867;28;20472;-67
2023/10/29 14:01:26;;;;;;;1.67;0.80;;;17.80;99.90;;;;;;4994101;28;20485;-67
2023/10/29 14:03:55;;;;;;;1.90;1.10;;;17.80;99.90;;;;;;4993853;28;20473;-67
2023/10/29 14:06:22;;;;;;;1.60;0.77;;;17.80;99.90;;;;;;4993345;28;20465;-67
2023/10/29 14:08:49;;;;;;;2.00;1.10;;;17.80;99.90;;;;;;4993624;28;20549;-67
2023/10/29 14:11:16;;;;;;;1.97;0.87;;;17.80;99.90;;;;;;4994118;28;20480;-67
2023/10/29 14:13:43;;;;;;;2.27;1.43;;;17.80;99.90;;;;;;4993535;28;20958;-67
2023/10/29 14:16:11;;;;;;;1.30;0.80;;;17.80;99.90;;;;;;4993554;28;20491;-67
2023/10/29 14:18:39;;;;;;;1.03;0.83;;;17.80;99.90;;;;;;4993559;28;20469;-66
2023/10/29 14:21:06;;;;;;;1.00;0.90;;;17.80;99.90;;;;;;4993979;28;20489;-67
2023/10/29 14:23:33;;;;;;;1.00;0.90;;;17.80;99.90;;;;;;4993928;28;20461;-67
2023/10/29 14:26:00;;;;;;;1.73;1.20;;;17.80;99.90;;;;;;4993110;28;20494;-67
2023/10/29 14:28:26;;;;;;;1.60;1.07;;;17.80;99.90;;;;;;4993812;28;20472;-67
2023/10/29 14:30:53;;;;;;;1.10;1.00;;;17.80;99.90;;;;;;4993225;28;21009;-67
2023/10/29 14:33:21;;;;;;;1.00;0.80;;;17.80;99.90;;;;;;4993760;28;20472;-67
2023/10/29 14:35:56;;;;;;;1.20;1.10;;;17.80;99.90;;;;;;4992625;28;20496;-67
2023/10/29 14:38:23;;;;;;;2.90;1.10;;;17.80;99.90;;;;;;4993576;28;20468;-67
2023/10/29 14:40:53;;;;;;;0.93;0.80;;;17.80;99.90;;;;;;4993087;28;20552;-67
2023/10/29 14:43:21;;;;;;;0.90;0.80;;;17.80;99.90;;;;;;4993521;28;20465;-67
2023/10/29 14:45:48;;;;;;;0.90;0.80;;;17.80;99.90;;;;;;4992775;28;20467;-67
2023/10/29 14:48:16;;;;;;;0.90;0.80;;;17.70;99.90;;;;;;4993319;28;21001;-66
2023/10/29 14:50:43;;;;;;;0.90;0.80;;;17.60;99.90;;;;;;4992927;28;20546;-67
2023/10/29 14:53:11;;;;;;;1.80;1.03;;;17.50;99.90;;;;;;4993451;28;20476;-67
2023/10/29 14:55:37;;;;;;;1.47;1.20;;;17.50;99.90;;;;;;4992644;28;20487;-66
2023/10/29 14:58:04;;;;;;;1.23;1.13;;;17.40;99.90;;;;;;4992948;28;20820;-67
2023/10/29 15:00:31;;;;;;;2.07;1.27;;;17.40;99.90;;;;;;4993185;28;20468;-67
2023/10/29 15:02:59;;;;;;;1.53;0.97;;;17.30;99.90;;;;;;4993043;28;20473;-67
2023/10/29 15:05:25;;;;;;;1.20;1.00;;;17.20;99.90;;;;;;4992814;28;20514;-67
2023/10/29 15:07:54;;;;;;;1.10;1.00;;;17.20;99.90;;;;;;4992260;28;20468;-67
2023/10/29 15:10:22;;;;;;;2.43;1.00;;;17.10;99.90;;;;;;4993089;28;20464;-67
2023/10/29 15:12:49;;;;;;;1.30;0.87;;;17.00;99.90;;;;;;4992510;28;20464;-67
2023/10/29 15:15:16;;;;;;;1.40;1.17;;;17.00;99.90;;;;;;4992582;28;20569;-67
2023/10/29 15:17:45;;;;;;;1.10;0.80;;;16.90;99.90;;;;;;4991413;28;21000;-66
2023/10/29 15:20:12;;;;;;;1.07;0.97;;;16.90;99.90;;;;;;4992816;28;20468;-67
2023/10/29 15:22:39;;;;;;;1.10;1.00;;;16.80;99.90;;;;;;4992469;28;20667;-67
2023/10/29 15:25:06;;;;;;;1.77;0.90;;;16.70;99.90;;;;;;4992397;28;20594;-66
2023/10/29 15:27:35;;;;;;;2.30;1.10;;;16.60;99.90;;;;;;4992285;28;20468;-66
2023/10/29 15:30:02;;;;;;;1.80;1.20;;;16.40;99.90;;;;;;4992324;28;20468;-67
2023/10/29 15:32:29;;;;;;;1.10;1.00;;;16.30;99.90;;;;;;4992388;28;21021;-67
2023/10/29 15:34:57;;;;;;;1.87;1.40;;;16.30;99.90;;;;;;4991775;28;20489;-65
2023/10/29 15:37:26;;;;;;;4.10;2.23;;;16.20;99.90;;;;;;4992085;28;20516;-67
2023/10/29 15:39:56;;;;;;;1.87;1.43;;;16.10;99.90;;;;;;4992108;28;20855;-67
2023/10/29 15:42:23;;;;;;;1.40;1.13;;;16.00;99.90;;;;;;4992374;28;20491;-67
2023/10/29 15:44:52;;;;;;;1.60;1.50;;;16.00;99.90;;;;;;4991660;28;20456;-67
2023/10/29 15:47:22;;;;;;;1.33;1.10;;;15.90;99.90;;;;;;4992013;28;20867;-67
2023/10/29 15:49:50;;;;;;;1.43;1.23;;;15.80;99.90;;;;;;4991954;28;20459;-67
2023/10/29 15:52:16;;;;;;;1.50;1.40;;;15.70;99.90;;;;;;4992238;28;20487;-67
2023/10/29 15:54:43;;;;;;;2.00;1.73;;;15.60;99.90;;;;;;4991694;28;20486;-67
2023/10/29 15:57:10;;;;;;;2.80;1.97;;;15.50;99.90;;;;;;4991606;28;20467;-66
2023/10/29 15:59:37;;;;;;;1.87;1.70;;;15.40;99.90;;;;;;4992270;28;20470;-67
2023/10/29 16:02:05;;;;;;;2.20;1.93;;;15.30;99.90;;;;;;4991486;28;20864;-67
2023/10/29 16:04:33;;;;;;;3.73;2.10;;;15.20;99.90;;;;;;4991966;28;20486;-67
2023/10/29 16:07:01;;;;;;;1.83;1.67;;;15.10;99.90;;;;;;4991020;28;20842;-67
2023/10/29 16:09:27;;;;;;;1.87;1.70;;;15.00;99.90;;;;;;4991937;28;20472;-68
2023/10/29 16:11:54;;;;;;;1.87;1.30;;;14.90;99.90;;;;;;4991392;28;20482;-67
2023/10/29 16:14:22;;;;;;;1.77;1.27;;;14.80;99.90;;;;;;4991704;28;20959;-67
2023/10/29 16:16:50;;;;;;;2.50;1.80;;;14.70;99.90;;;;;;4990939;28;20462;-67
2023/10/29 16:19:18;;;;;;;2.60;1.27;;;14.60;99.90;;;;;;4991997;28;20553;-67
2023/10/29 16:21:45;;;;;;;1.80;1.30;;;14.60;99.90;;;;;;4991269;28;20486;-67
2023/10/29 16:24:13;;;;;;;1.50;1.20;;;14.50;99.90;;;;;;4990744;28;20838;-67
2023/10/29 16:26:40;;;;;;;1.53;1.30;;;14.40;99.90;;;;;;4990125;28;20486;-67
2023/10/29 16:29:06;;;;;;;1.30;1.20;;;14.40;99.90;;;;;;4989754;28;20467;-67
2023/10/29 16:31:33;;;;;;;1.23;1.10;;;14.40;99.90;;;;;;4990343;28;20851;-67
2023/10/29 16:34:00;;;;;;;1.50;1.40;;;14.20;99.90;;;;;;4988689;28;20471;-67
2023/10/29 16:36:28;;;;;;;2.03;1.47;;;14.20;99.90;;;;;;4989498;28;20500;-67
2023/10/29 16:38:54;;;;;;;1.70;1.33;;;14.20;99.90;;;;;;4988536;28;20470;-67
2023/10/29 16:41:21;;;;;;;1.70;1.20;;;14.10;99.90;;;;;;4989608;28;20482;-67
2023/10/29 16:43:48;;;;;;;1.87;1.50;;;14.10;99.90;;;;;;4988611;28;20973;-67
2023/10/29 16:46:16;;;;;;;2.10;1.40;;;14.00;99.90;;;;;;4989286;28;20581;-67
2023/10/29 16:48:43;;;;;;;1.63;1.30;;;14.00;99.90;;;;;;4988850;28;20842;-67
2023/10/29 16:51:10;;;;;;;1.47;1.20;;;13.90;99.90;;;;;;4982334;28;21069;-67
2023/10/29 16:53:38;;;;;;;1.40;1.30;;;13.80;99.90;;;;;;4985899;28;20477;-67
2023/10/29 16:56:06;;;;;;;1.90;1.40;;;13.80;99.90;;;;;;4988441;28;20956;-67
2023/10/29 16:58:33;;;;;;;1.43;1.13;;;13.80;99.90;;;;;;4991289;28;20466;-67
2023/10/29 17:01:00;;;;;;;1.90;1.20;;;13.70;99.90;;;;;;4990435;28;20486;-67
2023/10/29 17:03:28;;;;;;;1.30;1.10;;;13.70;99.90;;;;;;4991264;28;20468;-67
2023/10/29 17:05:58;;;;;;;1.33;1.23;;;13.60;99.90;;;;;;4989991;28;20552;-68
2023/10/29 17:08:25;;;;;;;4.10;1.83;;;13.60;99.90;;;;;;4990492;28;20505;-67
2023/10/29 17:10:57;;;;;;;2.27;1.73;;;13.60;99.90;;;;;;4990678;28;20496;-67
2023/10/29 17:13:25;;;;;;;1.80;1.53;;;13.60;99.90;;;;;;4991098;28;20461;-65
2023/10/29 17:15:58;;;;;;;3.27;2.97;;;13.60;99.90;;;;;;4985628;28;20490;-67
2023/10/29 17:18:25;;;;;;;2.80;1.90;;;13.60;99.90;;;;;;4980935;28;20470;-67
2023/10/29 17:20:54;;;;;;;2.60;1.80;;;13.60;99.90;;;;;;4987467;28;20483;-67
2023/10/29 17:25:56;;;;;;;2.20;1.60;;;13.80;99.90;;;;;;4938781;29;20883;-67
2023/10/29 17:28:23;;;;;;;1.70;1.50;;;13.90;99.90;;;;;;4949142;29;20975;-67
2023/10/29 17:30:50;;;;;;;1.57;1.47;;;14.00;99.90;;;;;;4943235;28;20958;-68
2023/10/29 17:33:16;;;;;;;1.30;1.20;;;14.00;99.90;;;;;;4945067;29;20505;-68
2023/10/29 17:35:43;;;;;;;1.53;1.43;;;14.00;99.90;;;;;;4925968;28;21023;-66